Terminal Aerodrome Forecast
Issued by NWS

Home | Current Version | Previous Version | Text Only | Print | Product List | Glossary On
Versions: 1 2 3 4 5 6 7 8 9 10 11 12
000
FTUS46 KPDT 290500
TAFPSC
TAF
KPSC 290531Z 2906/3006 12007KT P6SM FEW250
     FM291500 VRB06KT P6SM SKC
     FM292000 25007KT P6SM FEW100
     FM300400 20007KT P6SM FEW100=

USA.gov is the U.S. government's official web portal to all federal, state and local government web resources and services.